PWSweather.com
Personal Weather Stations
Station Observations
WD4JKH
Forsyth, GA 31029

Forsyth, GA 31029

Lat: 33.033225, Lon: -83.927995

Elevation: 709

Station Type: Davis Vantage VUE

High Low Average
Temperature 68.0°F20.0°C 48.5°F9.2°C 59.0°F15.0°C
Dew Point 63.6°F17.6°C 26.7°F-2.9°C 43.9°F6.6°C
Winds 14.4 mph 23.2 kmh Calm Calm 5.0 mph WSW8.0 kmh WSW
Wind Gusts 29.0 mph46.7 kmh 1.0 mph1.6 kmh 14.0 mph22.5 kmh
Humidity 99% 26% 64%
Pressure 30.25 in1024.4 mb 29.87 in1011.5 mb -
Precipitation 0.33 in8.4 mm - -
Hour Temp Dew Point Humidity Winds Wind Gusts Pressure Precip Precip Rate Daily Precip Total
12:00 AM 50.5°F10.3°C 50.2°F10.1°C 99% 2.4 mph SE3.9 kmh SE 7.0 mph11.3 kmh 30.02 in1016.6 mb 0.00 in0.0 mm 0.00 in0.0 mm 0.02 in0.5 mm
12:05 AM 50.5°F10.3°C 50.2°F10.1°C 99% 1.8 mph SE2.9 kmh SE 7.0 mph11.3 kmh 30.02 in1016.6 mb 0.00 in0.0 mm 0.00 in0.0 mm 0.00 in0.0 mm
12:11 AM 50.5°F10.3°C 50.2°F10.1°C 99% 1.9 mph ESE3.1 kmh ESE 7.0 mph11.3 kmh 30.02 in1016.6 mb 0.00 in0.0 mm 0.00 in0.0 mm 0.00 in0.0 mm
12:15 AM 50.5°F10.3°C 50.2°F10.1°C 99% 1.7 mph ESE2.7 kmh ESE 7.0 mph11.3 kmh 30.02 in1016.6 mb 0.00 in0.0 mm 0.00 in0.0 mm 0.00 in0.0 mm
12:21 AM 50.5°F10.3°C 50.2°F10.1°C 99% 2.3 mph ESE3.7 kmh ESE 7.0 mph11.3 kmh 30.02 in1016.6 mb 0.00 in0.0 mm 0.00 in0.0 mm 0.00 in0.0 mm
12:26 AM 50.5°F10.3°C 50.2°F10.1°C 99% 1.1 mph SE1.8 kmh SE 7.0 mph11.3 kmh 30.02 in1016.6 mb 0.00 in0.0 mm 0.00 in0.0 mm 0.00 in0.0 mm
12:31 AM 50.6°F10.3°C 50.3°F10.2°C 99% 1.0 mph SE1.6 kmh SE 4.0 mph6.4 kmh 30.01 in1016.3 mb 0.00 in0.0 mm 0.00 in0.0 mm 0.00 in0.0 mm
12:36 AM 50.6°F10.3°C 50.3°F10.2°C 99% 1.7 mph ESE2.7 kmh ESE 5.0 mph8.0 kmh 30.01 in1016.3 mb 0.00 in0.0 mm 0.00 in0.0 mm 0.00 in0.0 mm
12:41 AM 50.7°F10.4°C 50.4°F10.2°C 99% 2.0 mph E3.2 kmh E 5.0 mph8.0 kmh 30.01 in1016.3 mb 0.00 in0.0 mm 0.00 in0.0 mm 0.00 in0.0 mm
12:46 AM 50.7°F10.4°C 50.4°F10.2°C 99% 2.2 mph ESE3.5 kmh ESE 5.0 mph8.0 kmh 30.01 in1016.3 mb 0.00 in0.0 mm 0.00 in0.0 mm 0.00 in0.0 mm
12:51 AM 50.7°F10.4°C 50.4°F10.2°C 99% 2.2 mph SE3.5 kmh SE 5.0 mph8.0 kmh 30.00 in1015.9 mb 0.00 in0.0 mm 0.00 in0.0 mm 0.00 in0.0 mm
12:56 AM 50.8°F10.4°C 50.5°F10.3°C 99% 1.8 mph ESE2.9 kmh ESE 5.0 mph8.0 kmh 30.00 in1015.9 mb 0.00 in0.0 mm 0.00 in0.0 mm 0.00 in0.0 mm
01:01 AM 50.8°F10.4°C 50.5°F10.3°C 99% 1.6 mph SE2.6 kmh SE 5.0 mph8.0 kmh 30.00 in1015.9 mb 0.00 in0.0 mm 0.00 in0.0 mm 0.00 in0.0 mm
01:06 AM 50.9°F10.5°C 50.6°F10.3°C 99% 2.0 mph SE3.2 kmh SE 5.0 mph8.0 kmh 30.00 in1015.9 mb 0.00 in0.0 mm 0.00 in0.0 mm 0.00 in0.0 mm
01:11 AM 50.9°F10.5°C 50.6°F10.3°C 99% 1.5 mph ESE2.4 kmh ESE 4.0 mph6.4 kmh 29.99 in1015.6 mb 0.00 in0.0 mm 0.00 in0.0 mm 0.00 in0.0 mm
01:16 AM 51.0°F10.6°C 50.7°F10.4°C 99% 1.0 mph SE1.6 kmh SE 3.0 mph4.8 kmh 29.99 in1015.6 mb 0.00 in0.0 mm 0.00 in0.0 mm 0.00 in0.0 mm
01:21 AM 51.2°F10.7°C 50.9°F10.5°C 99% Calm Calm 3.0 mph4.8 kmh 29.99 in1015.6 mb 0.00 in0.0 mm 0.00 in0.0 mm 0.00 in0.0 mm
01:26 AM 51.3°F10.7°C 51.0°F10.6°C 99% Calm Calm 3.0 mph4.8 kmh 29.99 in1015.6 mb 0.00 in0.0 mm 0.00 in0.0 mm 0.00 in0.0 mm
01:31 AM 51.3°F10.7°C 51.0°F10.6°C 99% Calm Calm 1.0 mph1.6 kmh 29.99 in1015.6 mb 0.00 in0.0 mm 0.00 in0.0 mm 0.00 in0.0 mm
01:36 AM 51.4°F10.8°C 51.1°F10.6°C 99% 1.0 mph ESE1.6 kmh ESE 2.0 mph3.2 kmh 29.99 in1015.6 mb 0.00 in0.0 mm 0.00 in0.0 mm 0.00 in0.0 mm
01:41 AM 51.5°F10.8°C 51.2°F10.7°C 99% 2.0 mph E3.2 kmh E 4.0 mph6.4 kmh 29.98 in1015.2 mb 0.00 in0.0 mm 0.00 in0.0 mm 0.00 in0.0 mm
01:46 AM 51.6°F10.9°C 51.3°F10.7°C 99% 1.3 mph SE2.1 kmh SE 4.0 mph6.4 kmh 29.98 in1015.2 mb 0.00 in0.0 mm 0.00 in0.0 mm 0.00 in0.0 mm
01:51 AM 51.8°F11.0°C 51.5°F10.8°C 99% 1.0 mph SSE1.6 kmh SSE 4.0 mph6.4 kmh 29.98 in1015.2 mb 0.00 in0.0 mm 0.00 in0.0 mm 0.00 in0.0 mm
01:56 AM 51.9°F11.1°C 51.6°F10.9°C 99% 1.7 mph SE2.7 kmh SE 4.0 mph6.4 kmh 29.98 in1015.2 mb 0.00 in0.0 mm 0.00 in0.0 mm 0.00 in0.0 mm
02:01 AM 52.0°F11.1°C 51.7°F10.9°C 99% 1.2 mph SE1.9 kmh SE 3.0 mph4.8 kmh 29.96 in1014.6 mb 0.00 in0.0 mm 0.00 in0.0 mm 0.00 in0.0 mm
02:06 AM 52.1°F11.2°C 51.8°F11.0°C 99% 1.6 mph SE2.6 kmh SE 4.0 mph6.4 kmh 29.96 in1014.6 mb 0.00 in0.0 mm 0.00 in0.0 mm 0.00 in0.0 mm
02:11 AM 52.1°F11.2°C 51.8°F11.0°C 99% 1.0 mph SE1.6 kmh SE 4.0 mph6.4 kmh 29.96 in1014.6 mb 0.00 in0.0 mm 0.00 in0.0 mm 0.00 in0.0 mm
02:16 AM 52.1°F11.2°C 51.8°F11.0°C 99% 1.0 mph SE1.6 kmh SE 4.0 mph6.4 kmh 29.95 in1014.2 mb 0.00 in0.0 mm 0.00 in0.0 mm 0.00 in0.0 mm
02:21 AM 52.1°F11.2°C 51.8°F11.0°C 99% 1.3 mph SE2.1 kmh SE 4.0 mph6.4 kmh 29.95 in1014.2 mb 0.00 in0.0 mm 0.00 in0.0 mm 0.00 in0.0 mm
02:26 AM 52.2°F11.2°C 51.9°F11.1°C 99% 1.1 mph SE1.8 kmh SE 3.0 mph4.8 kmh 29.95 in1014.2 mb 0.00 in0.0 mm 0.00 in0.0 mm 0.00 in0.0 mm
02:31 AM 52.4°F11.3°C 52.1°F11.2°C 99% 1.5 mph SE2.4 kmh SE 3.0 mph4.8 kmh 29.95 in1014.2 mb 0.00 in0.0 mm 0.00 in0.0 mm 0.00 in0.0 mm
02:36 AM 52.5°F11.4°C 52.2°F11.2°C 99% 1.0 mph SSW1.6 kmh SSW 3.0 mph4.8 kmh 29.95 in1014.2 mb 0.00 in0.0 mm 0.00 in0.0 mm 0.00 in0.0 mm
02:41 AM 52.6°F11.4°C 52.3°F11.3°C 99% 1.3 mph SW2.1 kmh SW 3.0 mph4.8 kmh 29.95 in1014.2 mb 0.00 in0.0 mm 0.00 in0.0 mm 0.00 in0.0 mm
02:46 AM 52.8°F11.6°C 52.5°F11.4°C 99% 2.0 mph SE3.2 kmh SE 3.0 mph4.8 kmh 29.94 in1013.9 mb 0.00 in0.0 mm 0.00 in0.0 mm 0.00 in0.0 mm
02:51 AM 52.8°F11.6°C 52.5°F11.4°C 99% 2.2 mph SE3.5 kmh SE 4.0 mph6.4 kmh 29.93 in1013.5 mb 0.00 in0.0 mm 0.00 in0.0 mm 0.00 in0.0 mm
02:56 AM 53.1°F11.7°C 52.8°F11.6°C 99% 1.3 mph SSE2.1 kmh SSE 5.0 mph8.0 kmh 29.93 in1013.5 mb 0.00 in0.0 mm 0.00 in0.0 mm 0.00 in0.0 mm
03:01 AM 53.6°F12.0°C 53.3°F11.8°C 99% 2.9 mph SSE4.7 kmh SSE 7.0 mph11.3 kmh 29.92 in1013.2 mb 0.00 in0.0 mm 0.00 in0.0 mm 0.00 in0.0 mm
03:06 AM 53.8°F12.1°C 53.5°F11.9°C 99% 1.9 mph SE3.1 kmh SE 7.0 mph11.3 kmh 29.92 in1013.2 mb 0.00 in0.0 mm 0.00 in0.0 mm 0.00 in0.0 mm
03:11 AM 54.3°F12.4°C 54.0°F12.2°C 99% 2.8 mph S4.5 kmh S 7.0 mph11.3 kmh 29.92 in1013.2 mb 0.00 in0.0 mm 0.00 in0.0 mm 0.00 in0.0 mm
03:16 AM 54.6°F12.6°C 54.3°F12.4°C 99% 3.6 mph SSW5.8 kmh SSW 7.0 mph11.3 kmh 29.93 in1013.5 mb 0.00 in0.0 mm 0.00 in0.0 mm 0.00 in0.0 mm
03:21 AM 54.6°F12.6°C 54.3°F12.4°C 99% 1.4 mph S2.3 kmh S 7.0 mph11.3 kmh 29.92 in1013.2 mb 0.00 in0.0 mm 0.00 in0.0 mm 0.00 in0.0 mm
03:26 AM 54.9°F12.7°C 54.6°F12.6°C 99% 2.8 mph S4.5 kmh S 7.0 mph11.3 kmh 29.92 in1013.2 mb 0.00 in0.0 mm 0.00 in0.0 mm 0.00 in0.0 mm
03:31 AM 54.9°F12.7°C 54.6°F12.6°C 99% 2.1 mph S3.4 kmh S 6.0 mph9.7 kmh 29.92 in1013.2 mb 0.00 in0.0 mm 0.00 in0.0 mm 0.00 in0.0 mm
03:36 AM 55.2°F12.9°C 54.9°F12.7°C 99% 3.0 mph S4.8 kmh S 6.0 mph9.7 kmh 29.91 in1012.9 mb 0.00 in0.0 mm 0.00 in0.0 mm 0.00 in0.0 mm
03:41 AM 55.3°F12.9°C 55.0°F12.8°C 99% 2.5 mph S4.0 kmh S 6.0 mph9.7 kmh 29.91 in1012.9 mb 0.00 in0.0 mm 0.00 in0.0 mm 0.00 in0.0 mm
03:46 AM 55.7°F13.2°C 55.4°F13.0°C 99% 3.6 mph S5.8 kmh S 12.0 mph19.3 kmh 29.90 in1012.5 mb 0.00 in0.0 mm 0.00 in0.0 mm 0.00 in0.0 mm
03:51 AM 56.0°F13.3°C 55.7°F13.2°C 99% 3.5 mph S5.6 kmh S 12.0 mph19.3 kmh 29.90 in1012.5 mb 0.00 in0.0 mm 0.00 in0.0 mm 0.00 in0.0 mm
03:56 AM 56.4°F13.6°C 56.1°F13.4°C 99% 3.3 mph SSE5.3 kmh SSE 12.0 mph19.3 kmh 29.90 in1012.5 mb 0.00 in0.0 mm 0.00 in0.0 mm 0.00 in0.0 mm
04:00 AM 56.4°F13.6°C 56.1°F13.4°C 99% 1.4 mph S2.3 kmh S 12.0 mph19.3 kmh 29.90 in1012.5 mb 0.00 in0.0 mm 0.00 in0.0 mm 0.00 in0.0 mm
04:05 AM 56.5°F13.6°C 56.2°F13.4°C 99% 2.4 mph SSW3.9 kmh SSW 11.0 mph17.7 kmh 29.90 in1012.5 mb 0.00 in0.0 mm 0.00 in0.0 mm 0.00 in0.0 mm
04:10 AM 56.4°F13.6°C 56.1°F13.4°C 99% 2.2 mph SSW3.5 kmh SSW 11.0 mph17.7 kmh 29.90 in1012.5 mb 0.00 in0.0 mm 0.00 in0.0 mm 0.00 in0.0 mm
04:15 AM 56.3°F13.5°C 56.0°F13.3°C 99% 3.1 mph SSW5.0 kmh SSW 9.0 mph14.5 kmh 29.90 in1012.5 mb 0.00 in0.0 mm 0.00 in0.0 mm 0.00 in0.0 mm
04:20 AM 56.4°F13.6°C 56.1°F13.4°C 99% 3.9 mph SSW6.3 kmh SSW 9.0 mph14.5 kmh 29.91 in1012.9 mb 0.00 in0.0 mm 0.00 in0.0 mm 0.00 in0.0 mm
04:25 AM 56.4°F13.6°C 56.1°F13.4°C 99% 3.6 mph SSW5.8 kmh SSW 9.0 mph14.5 kmh 29.91 in1012.9 mb 0.00 in0.0 mm 0.00 in0.0 mm 0.00 in0.0 mm
04:30 AM 56.3°F13.5°C 56.0°F13.3°C 99% 3.2 mph SSW5.1 kmh SSW 9.0 mph14.5 kmh 29.90 in1012.5 mb 0.00 in0.0 mm 0.00 in0.0 mm 0.00 in0.0 mm
04:35 AM 56.3°F13.5°C 56.0°F13.3°C 99% 2.1 mph S3.4 kmh S 9.0 mph14.5 kmh 29.90 in1012.5 mb 0.00 in0.0 mm 0.00 in0.0 mm 0.00 in0.0 mm
04:40 AM 56.7°F13.7°C 56.4°F13.6°C 99% 2.2 mph SSW3.5 kmh SSW 9.0 mph14.5 kmh 29.90 in1012.5 mb 0.01 in0.3 mm 0.12 in3.0 mm 0.01 in0.3 mm
04:45 AM 57.0°F13.9°C 56.7°F13.7°C 99% 3.0 mph S4.8 kmh S 9.0 mph14.5 kmh 29.89 in1012.2 mb 0.01 in0.3 mm 0.00 in0.0 mm 0.01 in0.3 mm
04:50 AM 57.3°F14.1°C 57.0°F13.9°C 99% 3.0 mph S4.8 kmh S 8.0 mph12.9 kmh 29.88 in1011.9 mb 0.01 in0.3 mm 0.00 in0.0 mm 0.01 in0.3 mm
04:55 AM 57.6°F14.2°C 57.3°F14.1°C 99% 3.2 mph S5.1 kmh S 8.0 mph12.9 kmh 29.88 in1011.9 mb 0.01 in0.3 mm 0.00 in0.0 mm 0.01 in0.3 mm
05:00 AM 58.3°F14.6°C 58.0°F14.4°C 99% 4.2 mph S6.8 kmh S 12.0 mph19.3 kmh 29.88 in1011.9 mb 0.01 in0.3 mm 0.00 in0.0 mm 0.01 in0.3 mm
05:05 AM 58.7°F14.8°C 58.4°F14.7°C 99% 3.2 mph S5.1 kmh S 12.0 mph19.3 kmh 29.88 in1011.9 mb 0.01 in0.3 mm 0.00 in0.0 mm 0.01 in0.3 mm
05:10 AM 59.1°F15.1°C 58.8°F14.9°C 99% 3.6 mph S5.8 kmh S 12.0 mph19.3 kmh 29.87 in1011.5 mb 0.01 in0.3 mm 0.00 in0.0 mm 0.01 in0.3 mm
05:15 AM 59.3°F15.2°C 59.0°F15.0°C 99% 4.1 mph SSW6.6 kmh SSW 12.0 mph19.3 kmh 29.87 in1011.5 mb 0.01 in0.3 mm 0.00 in0.0 mm 0.01 in0.3 mm
05:20 AM 59.3°F15.2°C 59.0°F15.0°C 99% 3.1 mph S5.0 kmh S 11.0 mph17.7 kmh 29.87 in1011.5 mb 0.01 in0.3 mm 0.00 in0.0 mm 0.01 in0.3 mm
05:25 AM 59.4°F15.2°C 59.1°F15.1°C 99% 3.1 mph SSW5.0 kmh SSW 11.0 mph17.7 kmh 29.87 in1011.5 mb 0.01 in0.3 mm 0.00 in0.0 mm 0.01 in0.3 mm
05:30 AM 59.5°F15.3°C 59.2°F15.1°C 99% 2.9 mph SSW4.7 kmh SSW 11.0 mph17.7 kmh 29.88 in1011.9 mb 0.01 in0.3 mm 0.00 in0.0 mm 0.01 in0.3 mm
05:35 AM 59.7°F15.4°C 59.4°F15.2°C 99% 3.2 mph S5.1 kmh S 11.0 mph17.7 kmh 29.87 in1011.5 mb 0.01 in0.3 mm 0.00 in0.0 mm 0.01 in0.3 mm
05:40 AM 60.1°F15.6°C 59.8°F15.4°C 99% 3.1 mph SSW5.0 kmh SSW 9.0 mph14.5 kmh 29.87 in1011.5 mb 0.00 in0.0 mm 0.00 in0.0 mm 0.01 in0.3 mm
05:45 AM 60.4°F15.8°C 60.1°F15.6°C 99% 3.9 mph S6.3 kmh S 9.0 mph14.5 kmh 29.87 in1011.5 mb 0.01 in0.3 mm 0.12 in3.0 mm 0.02 in0.5 mm
05:50 AM 60.9°F16.1°C 60.6°F15.9°C 99% 5.3 mph SW8.5 kmh SW 13.0 mph20.9 kmh 29.89 in1012.2 mb 0.02 in0.5 mm 0.12 in3.0 mm 0.03 in0.8 mm
05:55 AM 61.6°F16.4°C 61.3°F16.3°C 99% 3.9 mph SW6.3 kmh SW 13.0 mph20.9 kmh 29.89 in1012.2 mb 0.03 in0.8 mm 0.12 in3.0 mm 0.04 in1.0 mm
06:00 AM 62.4°F16.9°C 62.1°F16.7°C 99% 5.4 mph SW8.7 kmh SW 13.0 mph20.9 kmh 29.88 in1011.9 mb 0.07 in1.8 mm 0.04 in1.0 mm 0.08 in2.0 mm
06:05 AM 63.1°F17.3°C 62.8°F17.1°C 99% 4.1 mph SW6.6 kmh SW 13.0 mph20.9 kmh 29.89 in1012.2 mb 0.09 in2.3 mm 0.24 in6.1 mm 0.10 in2.5 mm
06:10 AM 63.6°F17.6°C 63.3°F17.4°C 99% 4.9 mph SW7.9 kmh SW 13.0 mph20.9 kmh 29.89 in1012.2 mb 0.12 in3.0 mm 0.36 in9.1 mm 0.13 in3.3 mm
06:15 AM 63.9°F17.7°C 63.6°F17.6°C 99% 8.3 mph W13.4 kmh W 16.0 mph25.7 kmh 29.91 in1012.9 mb 0.14 in3.6 mm 0.24 in6.1 mm 0.15 in3.8 mm
06:20 AM 61.6°F16.4°C 61.3°F16.3°C 99% 11.1 mph WNW17.9 kmh WNW 25.0 mph40.2 kmh 29.92 in1013.2 mb 0.19 in4.8 mm 0.60 in15.2 mm 0.20 in5.1 mm
06:25 AM 60.3°F15.7°C 60.0°F15.6°C 99% 5.2 mph WSW8.4 kmh WSW 25.0 mph40.2 kmh 29.92 in1013.2 mb 0.24 in6.1 mm 0.60 in15.2 mm 0.25 in6.4 mm
06:30 AM 59.7°F15.4°C 59.4°F15.2°C 99% 4.9 mph W7.9 kmh W 25.0 mph40.2 kmh 29.91 in1012.9 mb 0.26 in6.6 mm 0.24 in6.1 mm 0.27 in6.9 mm
06:35 AM 59.4°F15.2°C 59.1°F15.1°C 99% 5.2 mph W8.4 kmh W 25.0 mph40.2 kmh 29.92 in1013.2 mb 0.29 in7.4 mm 0.36 in9.1 mm 0.30 in7.6 mm
06:40 AM 59.3°F15.2°C 59.0°F15.0°C 99% 4.5 mph W7.2 kmh W 17.0 mph27.4 kmh 29.92 in1013.2 mb 0.30 in7.6 mm 0.12 in3.0 mm 0.31 in7.9 mm
06:45 AM 59.2°F15.1°C 58.9°F14.9°C 99% 5.7 mph W9.2 kmh W 14.0 mph22.5 kmh 29.92 in1013.2 mb 0.29 in7.4 mm 0.00 in0.0 mm 0.31 in7.9 mm
06:50 AM 59.2°F15.1°C 58.9°F14.9°C 99% 3.6 mph W5.8 kmh W 13.0 mph20.9 kmh 29.93 in1013.5 mb 0.28 in7.1 mm 0.00 in0.0 mm 0.31 in7.9 mm
06:55 AM 59.2°F15.1°C 58.9°F14.9°C 99% 4.1 mph WNW6.6 kmh WNW 13.0 mph20.9 kmh 29.92 in1013.2 mb 0.27 in6.9 mm 0.00 in0.0 mm 0.31 in7.9 mm
07:00 AM 59.3°F15.2°C 59.0°F15.0°C 99% 5.6 mph W9.0 kmh W 11.0 mph17.7 kmh 29.94 in1013.9 mb 0.22 in5.6 mm 0.00 in0.0 mm 0.31 in7.9 mm
07:05 AM 59.4°F15.2°C 59.1°F15.1°C 99% 2.1 mph W3.4 kmh W 11.0 mph17.7 kmh 29.93 in1013.5 mb 0.22 in5.6 mm 0.00 in0.0 mm 0.32 in8.1 mm
07:10 AM 59.5°F15.3°C 59.2°F15.1°C 99% 5.3 mph W8.5 kmh W 15.0 mph24.1 kmh 29.93 in1013.5 mb 0.20 in5.1 mm 0.00 in0.0 mm 0.33 in8.4 mm
07:15 AM 59.4°F15.2°C 59.1°F15.1°C 99% 4.7 mph W7.6 kmh W 15.0 mph24.1 kmh 29.93 in1013.5 mb 0.18 in4.6 mm 0.00 in0.0 mm 0.33 in8.4 mm
07:20 AM 59.2°F15.1°C 58.9°F14.9°C 99% 4.8 mph W7.7 kmh W 15.0 mph24.1 kmh 29.94 in1013.9 mb 0.13 in3.3 mm 0.00 in0.0 mm 0.33 in8.4 mm
07:25 AM 59.1°F15.1°C 58.8°F14.9°C 99% 1.6 mph W2.6 kmh W 15.0 mph24.1 kmh 29.93 in1013.5 mb 0.08 in2.0 mm 0.00 in0.0 mm 0.33 in8.4 mm
07:30 AM 59.0°F15.0°C 58.7°F14.8°C 99% 4.2 mph W6.8 kmh W 15.0 mph24.1 kmh 29.94 in1013.9 mb 0.06 in1.5 mm 0.00 in0.0 mm 0.33 in8.4 mm
07:35 AM 59.0°F15.0°C 58.7°F14.8°C 99% 3.5 mph WSW5.6 kmh WSW 13.0 mph20.9 kmh 29.94 in1013.9 mb 0.03 in0.8 mm 0.00 in0.0 mm 0.33 in8.4 mm
07:40 AM 59.1°F15.1°C 58.8°F14.9°C 99% 2.8 mph W4.5 kmh W 11.0 mph17.7 kmh 29.94 in1013.9 mb 0.02 in0.5 mm 0.00 in0.0 mm 0.33 in8.4 mm
07:45 AM 59.2°F15.1°C 58.9°F14.9°C 99% 2.4 mph W3.9 kmh W 10.0 mph16.1 kmh 29.94 in1013.9 mb 0.02 in0.5 mm 0.00 in0.0 mm 0.33 in8.4 mm
07:50 AM 59.2°F15.1°C 58.9°F14.9°C 99% 1.7 mph W2.7 kmh W 10.0 mph16.1 kmh 29.94 in1013.9 mb 0.02 in0.5 mm 0.00 in0.0 mm 0.33 in8.4 mm
07:55 AM 59.2°F15.1°C 58.9°F14.9°C 99% 2.8 mph W4.5 kmh W 10.0 mph16.1 kmh 29.93 in1013.5 mb 0.02 in0.5 mm 0.00 in0.0 mm 0.33 in8.4 mm
08:00 AM 58.6°F14.8°C 58.3°F14.6°C 99% 4.2 mph W6.8 kmh W 14.0 mph22.5 kmh 29.94 in1013.9 mb 0.02 in0.5 mm 0.00 in0.0 mm 0.33 in8.4 mm
08:05 AM 58.4°F14.7°C 58.1°F14.5°C 99% 2.7 mph W4.3 kmh W 14.0 mph22.5 kmh 29.94 in1013.9 mb 0.01 in0.3 mm 0.00 in0.0 mm 0.33 in8.4 mm
08:10 AM 58.0°F14.4°C 57.7°F14.3°C 99% 3.9 mph W6.3 kmh W 14.0 mph22.5 kmh 29.95 in1014.2 mb 0.00 in0.0 mm 0.00 in0.0 mm 0.33 in8.4 mm
08:15 AM 57.8°F14.3°C 57.5°F14.2°C 99% 2.4 mph WNW3.9 kmh WNW 8.0 mph12.9 kmh 29.94 in1013.9 mb 0.00 in0.0 mm 0.00 in0.0 mm 0.33 in8.4 mm
08:20 AM 57.6°F14.2°C 57.3°F14.1°C 99% 2.3 mph W3.7 kmh W 9.0 mph14.5 kmh 29.94 in1013.9 mb 0.00 in0.0 mm 0.00 in0.0 mm 0.33 in8.4 mm
08:25 AM 57.6°F14.2°C 57.3°F14.1°C 99% 2.6 mph W4.2 kmh W 9.0 mph14.5 kmh 29.94 in1013.9 mb 0.00 in0.0 mm 0.00 in0.0 mm 0.33 in8.4 mm
08:30 AM 57.8°F14.3°C 57.5°F14.2°C 99% 2.2 mph W3.5 kmh W 9.0 mph14.5 kmh 29.95 in1014.2 mb 0.00 in0.0 mm 0.00 in0.0 mm 0.33 in8.4 mm
08:35 AM 57.9°F14.4°C 57.3°F14.1°C 98% 3.3 mph W5.3 kmh W 9.0 mph14.5 kmh 29.95 in1014.2 mb 0.00 in0.0 mm 0.00 in0.0 mm 0.33 in8.4 mm
08:40 AM 58.5°F14.7°C 57.3°F14.1°C 96% 1.6 mph WNW2.6 kmh WNW 7.0 mph11.3 kmh 29.96 in1014.6 mb 0.00 in0.0 mm 0.00 in0.0 mm 0.33 in8.4 mm
08:45 AM 58.8°F14.9°C 55.2°F12.9°C 88% 2.4 mph W3.9 kmh W 7.0 mph11.3 kmh 29.96 in1014.6 mb 0.00 in0.0 mm 0.00 in0.0 mm 0.33 in8.4 mm
08:50 AM 59.2°F15.1°C 54.7°F12.6°C 85% 2.1 mph W3.4 kmh W 7.0 mph11.3 kmh 29.96 in1014.6 mb 0.00 in0.0 mm 0.00 in0.0 mm 0.33 in8.4 mm
08:55 AM 59.3°F15.2°C 54.5°F12.5°C 84% 2.7 mph W4.3 kmh W 7.0 mph11.3 kmh 29.96 in1014.6 mb 0.00 in0.0 mm 0.00 in0.0 mm 0.33 in8.4 mm
08:59 AM 59.4°F15.2°C 54.9°F12.7°C 85% 1.4 mph W2.3 kmh W 7.0 mph11.3 kmh 29.97 in1014.9 mb 0.00 in0.0 mm 0.00 in0.0 mm 0.33 in8.4 mm
09:04 AM 59.5°F15.3°C 55.3°F12.9°C 86% 1.9 mph WSW3.1 kmh WSW 6.0 mph9.7 kmh 29.97 in1014.9 mb 0.00 in0.0 mm 0.00 in0.0 mm 0.33 in8.4 mm
09:09 AM 59.7°F15.4°C 54.9°F12.7°C 84% 5.9 mph W9.5 kmh W 10.0 mph16.1 kmh 29.97 in1014.9 mb 0.00 in0.0 mm 0.00 in0.0 mm 0.33 in8.4 mm
09:14 AM 60.1°F15.6°C 55.3°F12.9°C 84% 4.5 mph W7.2 kmh W 10.0 mph16.1 kmh 29.97 in1014.9 mb 0.00 in0.0 mm 0.00 in0.0 mm 0.33 in8.4 mm
09:19 AM 60.3°F15.7°C 54.8°F12.7°C 82% 3.2 mph W5.1 kmh W 10.0 mph16.1 kmh 29.97 in1014.9 mb 0.00 in0.0 mm 0.00 in0.0 mm 0.33 in8.4 mm
09:24 AM 60.5°F15.8°C 53.3°F11.8°C 77% 4.6 mph W7.4 kmh W 13.0 mph20.9 kmh 29.97 in1014.9 mb 0.00 in0.0 mm 0.00 in0.0 mm 0.33 in8.4 mm
09:29 AM 60.8°F16.0°C 53.3°F11.8°C 76% 3.3 mph W5.3 kmh W 13.0 mph20.9 kmh 29.98 in1015.2 mb 0.00 in0.0 mm 0.00 in0.0 mm 0.33 in8.4 mm
09:34 AM 60.8°F16.0°C 53.3°F11.8°C 76% 2.1 mph WSW3.4 kmh WSW 13.0 mph20.9 kmh 29.98 in1015.2 mb 0.00 in0.0 mm 0.00 in0.0 mm 0.33 in8.4 mm
09:39 AM 60.8°F16.0°C 52.6°F11.4°C 74% 3.1 mph WSW5.0 kmh WSW 13.0 mph20.9 kmh 29.98 in1015.2 mb 0.00 in0.0 mm 0.00 in0.0 mm 0.33 in8.4 mm
09:44 AM 60.9°F16.1°C 52.3°F11.3°C 73% 5.4 mph WSW8.7 kmh WSW 10.0 mph16.1 kmh 29.98 in1015.2 mb 0.00 in0.0 mm 0.00 in0.0 mm 0.33 in8.4 mm
09:49 AM 61.0°F16.1°C 51.3°F10.7°C 70% 6.5 mph WSW10.5 kmh WSW 12.0 mph19.3 kmh 29.98 in1015.2 mb 0.00 in0.0 mm 0.00 in0.0 mm 0.33 in8.4 mm
09:54 AM 61.1°F16.2°C 51.8°F11.0°C 71% 5.4 mph W8.7 kmh W 12.0 mph19.3 kmh 29.98 in1015.2 mb 0.00 in0.0 mm 0.00 in0.0 mm 0.33 in8.4 mm
09:59 AM 61.2°F16.2°C 51.3°F10.7°C 70% 7.3 mph WSW11.7 kmh WSW 19.0 mph30.6 kmh 29.98 in1015.2 mb 0.00 in0.0 mm 0.00 in0.0 mm 0.33 in8.4 mm
10:04 AM 61.4°F16.3°C 51.9°F11.1°C 71% 4.4 mph WSW7.1 kmh WSW 19.0 mph30.6 kmh 29.98 in1015.2 mb 0.00 in0.0 mm 0.00 in0.0 mm 0.33 in8.4 mm
10:09 AM 61.7°F16.5°C 51.6°F10.9°C 69% 5.3 mph WSW8.5 kmh WSW 19.0 mph30.6 kmh 29.98 in1015.2 mb 0.00 in0.0 mm 0.00 in0.0 mm 0.33 in8.4 mm
10:14 AM 61.9°F16.6°C 50.6°F10.3°C 66% 5.8 mph WSW9.3 kmh WSW 19.0 mph30.6 kmh 29.98 in1015.2 mb 0.00 in0.0 mm 0.00 in0.0 mm 0.33 in8.4 mm
10:19 AM 62.4°F16.9°C 49.8°F9.9°C 63% 7.1 mph WSW11.4 kmh WSW 15.0 mph24.1 kmh 29.98 in1015.2 mb 0.00 in0.0 mm 0.00 in0.0 mm 0.33 in8.4 mm
10:24 AM 62.5°F16.9°C 48.1°F8.9°C 59% 7.9 mph WSW12.7 kmh WSW 16.0 mph25.7 kmh 29.98 in1015.2 mb 0.00 in0.0 mm 0.00 in0.0 mm 0.33 in8.4 mm
10:29 AM 62.8°F17.1°C 49.7°F9.8°C 62% 5.4 mph W8.7 kmh W 16.0 mph25.7 kmh 29.98 in1015.2 mb 0.00 in0.0 mm 0.00 in0.0 mm 0.33 in8.4 mm
10:34 AM 63.0°F17.2°C 48.6°F9.2°C 59% 8.0 mph W12.9 kmh W 18.0 mph29.0 kmh 29.99 in1015.6 mb 0.00 in0.0 mm 0.00 in0.0 mm 0.33 in8.4 mm
10:39 AM 63.3°F17.4°C 48.4°F9.1°C 58% 6.8 mph W10.9 kmh W 18.0 mph29.0 kmh 29.99 in1015.6 mb 0.00 in0.0 mm 0.00 in0.0 mm 0.33 in8.4 mm
10:44 AM 63.8°F17.7°C 49.3°F9.6°C 59% 3.6 mph W5.8 kmh W 18.0 mph29.0 kmh 29.99 in1015.6 mb 0.00 in0.0 mm 0.00 in0.0 mm 0.33 in8.4 mm
10:49 AM 64.0°F17.8°C 48.1°F8.9°C 56% 9.2 mph W14.8 kmh W 18.0 mph29.0 kmh 29.99 in1015.6 mb 0.00 in0.0 mm 0.00 in0.0 mm 0.33 in8.4 mm
10:55 AM 64.0°F17.8°C 47.6°F8.7°C 55% 6.6 mph W10.6 kmh W 17.0 mph27.4 kmh 29.99 in1015.6 mb 0.00 in0.0 mm 0.00 in0.0 mm 0.33 in8.4 mm
10:59 AM 64.1°F17.8°C 47.7°F8.7°C 55% 6.5 mph W10.5 kmh W 18.0 mph29.0 kmh 29.99 in1015.6 mb 0.00 in0.0 mm 0.00 in0.0 mm 0.33 in8.4 mm
11:04 AM 64.2°F17.9°C 47.3°F8.5°C 54% 7.2 mph W11.6 kmh W 18.0 mph29.0 kmh 29.99 in1015.6 mb 0.00 in0.0 mm 0.00 in0.0 mm 0.33 in8.4 mm
11:09 AM 64.5°F18.1°C 47.1°F8.4°C 53% 7.5 mph WNW12.1 kmh WNW 20.0 mph32.2 kmh 29.99 in1015.6 mb 0.00 in0.0 mm 0.00 in0.0 mm 0.33 in8.4 mm
11:14 AM 64.5°F18.1°C 46.5°F8.1°C 52% 10.7 mph W17.2 kmh W 20.0 mph32.2 kmh 30.00 in1015.9 mb 0.00 in0.0 mm 0.00 in0.0 mm 0.33 in8.4 mm
11:19 AM 64.6°F18.1°C 46.1°F7.8°C 51% 10.4 mph W16.7 kmh W 20.0 mph32.2 kmh 30.00 in1015.9 mb 0.00 in0.0 mm 0.00 in0.0 mm 0.33 in8.4 mm
11:24 AM 64.6°F18.1°C 45.6°F7.6°C 50% 14.2 mph WNW22.9 kmh WNW 24.0 mph38.6 kmh 30.00 in1015.9 mb 0.00 in0.0 mm 0.00 in0.0 mm 0.33 in8.4 mm
11:29 AM 65.2°F18.4°C 46.7°F8.2°C 51% 4.7 mph WSW7.6 kmh WSW 24.0 mph38.6 kmh 30.00 in1015.9 mb 0.00 in0.0 mm 0.00 in0.0 mm 0.33 in8.4 mm
11:35 AM 65.5°F18.6°C 46.4°F8.0°C 50% 9.1 mph WNW14.6 kmh WNW 24.0 mph38.6 kmh 30.00 in1015.9 mb 0.00 in0.0 mm 0.00 in0.0 mm 0.33 in8.4 mm
11:40 AM 65.4°F18.6°C 46.3°F7.9°C 50% 9.2 mph W14.8 kmh W 24.0 mph38.6 kmh 30.00 in1015.9 mb 0.00 in0.0 mm 0.00 in0.0 mm 0.33 in8.4 mm
11:45 AM 65.5°F18.6°C 46.9°F8.3°C 51% 7.4 mph W11.9 kmh W 21.0 mph33.8 kmh 30.01 in1016.3 mb 0.00 in0.0 mm 0.00 in0.0 mm 0.33 in8.4 mm
11:50 AM 65.5°F18.6°C 46.4°F8.0°C 50% 8.3 mph W13.4 kmh W 21.0 mph33.8 kmh 30.00 in1015.9 mb 0.00 in0.0 mm 0.00 in0.0 mm 0.33 in8.4 mm
11:55 AM 65.8°F18.8°C 46.1°F7.8°C 49% 5.2 mph W8.4 kmh W 21.0 mph33.8 kmh 30.00 in1015.9 mb 0.00 in0.0 mm 0.00 in0.0 mm 0.33 in8.4 mm
12:00 PM 66.2°F19.0°C 45.4°F7.4°C 47% 11.5 mph W18.5 kmh W 20.0 mph32.2 kmh 30.00 in1015.9 mb 0.00 in0.0 mm 0.00 in0.0 mm 0.33 in8.4 mm
12:05 PM 66.4°F19.1°C 45.5°F7.5°C 47% 7.7 mph WNW12.4 kmh WNW 20.0 mph32.2 kmh 30.00 in1015.9 mb 0.00 in0.0 mm 0.00 in0.0 mm 0.33 in8.4 mm
12:10 PM 67.1°F19.5°C 45.6°F7.6°C 46% 8.0 mph W12.9 kmh W 20.0 mph32.2 kmh 30.00 in1015.9 mb 0.00 in0.0 mm 0.00 in0.0 mm 0.33 in8.4 mm
12:15 PM 67.0°F19.4°C 44.3°F6.8°C 44% 11.2 mph WNW18.0 kmh WNW 20.0 mph32.2 kmh 30.00 in1015.9 mb 0.00 in0.0 mm 0.00 in0.0 mm 0.33 in8.4 mm
12:20 PM 67.2°F19.6°C 43.2°F6.2°C 42% 12.2 mph WNW19.6 kmh WNW 22.0 mph35.4 kmh 30.01 in1016.3 mb 0.00 in0.0 mm 0.00 in0.0 mm 0.33 in8.4 mm
12:25 PM 67.3°F19.6°C 42.7°F5.9°C 41% 12.3 mph WNW19.8 kmh WNW 25.0 mph40.2 kmh 30.01 in1016.3 mb 0.00 in0.0 mm 0.00 in0.0 mm 0.33 in8.4 mm
12:30 PM 67.3°F19.6°C 43.3°F6.3°C 42% 5.7 mph W9.2 kmh W 25.0 mph40.2 kmh 30.01 in1016.3 mb 0.00 in0.0 mm 0.00 in0.0 mm 0.33 in8.4 mm
12:35 PM 67.6°F19.8°C 43.6°F6.4°C 42% 9.7 mph WNW15.6 kmh WNW 25.0 mph40.2 kmh 30.01 in1016.3 mb 0.00 in0.0 mm 0.00 in0.0 mm 0.33 in8.4 mm
12:40 PM 67.6°F19.8°C 44.8°F7.1°C 44% 6.4 mph WNW10.3 kmh WNW 25.0 mph40.2 kmh 30.01 in1016.3 mb 0.00 in0.0 mm 0.00 in0.0 mm 0.33 in8.4 mm
12:45 PM 67.9°F19.9°C 45.1°F7.3°C 44% 5.5 mph WNW8.9 kmh WNW 24.0 mph38.6 kmh 30.01 in1016.3 mb 0.00 in0.0 mm 0.00 in0.0 mm 0.33 in8.4 mm
12:50 PM 67.7°F19.8°C 44.9°F7.2°C 44% 9.6 mph WNW15.4 kmh WNW 22.0 mph35.4 kmh 30.01 in1016.3 mb 0.00 in0.0 mm 0.00 in0.0 mm 0.33 in8.4 mm
12:55 PM 67.7°F19.8°C 44.4°F6.9°C 43% 10.0 mph WNW16.1 kmh WNW 22.0 mph35.4 kmh 30.01 in1016.3 mb 0.00 in0.0 mm 0.00 in0.0 mm 0.33 in8.4 mm
01:00 PM 67.7°F19.8°C 44.4°F6.9°C 43% 11.1 mph WNW17.9 kmh WNW 22.0 mph35.4 kmh 30.01 in1016.3 mb 0.00 in0.0 mm 0.00 in0.0 mm 0.33 in8.4 mm
01:05 PM 67.7°F19.8°C 43.8°F6.6°C 42% 7.9 mph WNW12.7 kmh WNW 25.0 mph40.2 kmh 30.01 in1016.3 mb 0.00 in0.0 mm 0.00 in0.0 mm 0.33 in8.4 mm
01:10 PM 68.0°F20.0°C 44.0°F6.7°C 42% 7.6 mph W12.2 kmh W 25.0 mph40.2 kmh 30.02 in1016.6 mb 0.00 in0.0 mm 0.00 in0.0 mm 0.33 in8.4 mm
01:15 PM 67.8°F19.9°C 44.4°F6.9°C 43% 10.1 mph WNW16.3 kmh WNW 25.0 mph40.2 kmh 30.02 in1016.6 mb 0.00 in0.0 mm 0.00 in0.0 mm 0.33 in8.4 mm
01:20 PM 67.7°F19.8°C 42.4°F5.8°C 40% 8.3 mph NW13.4 kmh NW 21.0 mph33.8 kmh 30.02 in1016.6 mb 0.00 in0.0 mm 0.00 in0.0 mm 0.33 in8.4 mm
01:25 PM 67.6°F19.8°C 42.9°F6.1°C 41% 9.4 mph NW15.1 kmh NW 21.0 mph33.8 kmh 30.02 in1016.6 mb 0.00 in0.0 mm 0.00 in0.0 mm 0.33 in8.4 mm
01:30 PM 67.6°F19.8°C 42.9°F6.1°C 41% 9.8 mph NW15.8 kmh NW 21.0 mph33.8 kmh 30.01 in1016.3 mb 0.00 in0.0 mm 0.00 in0.0 mm 0.33 in8.4 mm
01:35 PM 67.4°F19.7°C 42.8°F6.0°C 41% 11.3 mph WNW18.2 kmh WNW 24.0 mph38.6 kmh 30.02 in1016.6 mb 0.00 in0.0 mm 0.00 in0.0 mm 0.33 in8.4 mm
01:40 PM 67.1°F19.5°C 43.1°F6.2°C 42% 9.7 mph WNW15.6 kmh WNW 24.0 mph38.6 kmh 30.02 in1016.6 mb 0.00 in0.0 mm 0.00 in0.0 mm 0.33 in8.4 mm
01:45 PM 67.2°F19.6°C 41.9°F5.5°C 40% 12.3 mph W19.8 kmh W 26.0 mph41.8 kmh 30.02 in1016.6 mb 0.00 in0.0 mm 0.00 in0.0 mm 0.33 in8.4 mm
01:50 PM 67.3°F19.6°C 42.0°F5.6°C 40% 11.5 mph WNW18.5 kmh WNW 26.0 mph41.8 kmh 30.02 in1016.6 mb 0.00 in0.0 mm 0.00 in0.0 mm 0.33 in8.4 mm
01:55 PM 67.5°F19.7°C 43.5°F6.4°C 42% 4.5 mph WNW7.2 kmh WNW 26.0 mph41.8 kmh 30.02 in1016.6 mb 0.00 in0.0 mm 0.00 in0.0 mm 0.33 in8.4 mm
01:59 PM 67.1°F19.5°C 41.8°F5.4°C 40% 10.0 mph WNW16.1 kmh WNW 26.0 mph41.8 kmh 30.02 in1016.6 mb 0.00 in0.0 mm 0.00 in0.0 mm 0.33 in8.4 mm
02:04 PM 67.2°F19.6°C 42.6°F5.9°C 41% 8.0 mph NW12.9 kmh NW 22.0 mph35.4 kmh 30.02 in1016.6 mb 0.00 in0.0 mm 0.00 in0.0 mm 0.33 in8.4 mm
02:09 PM 67.4°F19.7°C 43.4°F6.3°C 42% 5.2 mph NW8.4 kmh NW 22.0 mph35.4 kmh 30.02 in1016.6 mb 0.00 in0.0 mm 0.00 in0.0 mm 0.33 in8.4 mm
02:14 PM 67.6°F19.8°C 41.6°F5.3°C 39% 7.3 mph NW11.7 kmh NW 22.0 mph35.4 kmh 30.03 in1016.9 mb 0.00 in0.0 mm 0.00 in0.0 mm 0.33 in8.4 mm
02:19 PM 67.7°F19.8°C 40.3°F4.6°C 37% 13.3 mph W21.4 kmh W 21.0 mph33.8 kmh 30.03 in1016.9 mb 0.00 in0.0 mm 0.00 in0.0 mm 0.33 in8.4 mm
02:24 PM 67.2°F19.6°C 42.0°F5.6°C 40% 9.4 mph NW15.1 kmh NW 21.0 mph33.8 kmh 30.03 in1016.9 mb 0.00 in0.0 mm 0.00 in0.0 mm 0.33 in8.4 mm
02:29 PM 67.4°F19.7°C 41.6°F5.3°C 39% 9.6 mph WNW15.4 kmh WNW 21.0 mph33.8 kmh 30.03 in1016.9 mb 0.00 in0.0 mm 0.00 in0.0 mm 0.33 in8.4 mm
02:34 PM 67.6°F19.8°C 41.7°F5.4°C 39% 7.9 mph WNW12.7 kmh WNW 21.0 mph33.8 kmh 30.03 in1016.9 mb 0.00 in0.0 mm 0.00 in0.0 mm 0.33 in8.4 mm
02:39 PM 67.5°F19.7°C 41.5°F5.3°C 39% 7.6 mph WNW12.2 kmh WNW 20.0 mph32.2 kmh 30.03 in1016.9 mb 0.00 in0.0 mm 0.00 in0.0 mm 0.33 in8.4 mm
02:44 PM 67.6°F19.8°C 40.9°F4.9°C 38% 7.0 mph W11.3 kmh W 20.0 mph32.2 kmh 30.03 in1016.9 mb 0.00 in0.0 mm 0.00 in0.0 mm 0.33 in8.4 mm
02:49 PM 67.2°F19.6°C 39.9°F4.4°C 37% 11.1 mph WNW17.9 kmh WNW 25.0 mph40.2 kmh 30.03 in1016.9 mb 0.00 in0.0 mm 0.00 in0.0 mm 0.33 in8.4 mm
02:54 PM 67.6°F19.8°C 40.9°F4.9°C 38% 4.4 mph WNW7.1 kmh WNW 25.0 mph40.2 kmh 30.03 in1016.9 mb 0.00 in0.0 mm 0.00 in0.0 mm 0.33 in8.4 mm
02:59 PM 67.1°F19.5°C 40.5°F4.7°C 38% 10.9 mph WNW17.5 kmh WNW 25.0 mph40.2 kmh 30.03 in1016.9 mb 0.00 in0.0 mm 0.00 in0.0 mm 0.33 in8.4 mm
03:04 PM 66.9°F19.4°C 39.6°F4.2°C 37% 8.3 mph W13.4 kmh W 25.0 mph40.2 kmh 30.03 in1016.9 mb 0.00 in0.0 mm 0.00 in0.0 mm 0.33 in8.4 mm
03:09 PM 66.8°F19.3°C 39.5°F4.2°C 37% 7.6 mph W12.2 kmh W 19.0 mph30.6 kmh 30.03 in1016.9 mb 0.00 in0.0 mm 0.00 in0.0 mm 0.33 in8.4 mm
03:14 PM 66.7°F19.3°C 38.7°F3.7°C 36% 5.7 mph W9.2 kmh W 19.0 mph30.6 kmh 30.03 in1016.9 mb 0.00 in0.0 mm 0.00 in0.0 mm 0.33 in8.4 mm
03:19 PM 66.7°F19.3°C 37.2°F2.9°C 34% 8.3 mph WNW13.4 kmh WNW 21.0 mph33.8 kmh 30.04 in1017.3 mb 0.00 in0.0 mm 0.00 in0.0 mm 0.33 in8.4 mm
03:24 PM 66.5°F19.2°C 37.1°F2.8°C 34% 9.3 mph WNW15.0 kmh WNW 21.0 mph33.8 kmh 30.04 in1017.3 mb 0.00 in0.0 mm 0.00 in0.0 mm 0.33 in8.4 mm
03:29 PM 66.7°F19.3°C 38.7°F3.7°C 36% 5.4 mph WNW8.7 kmh WNW 21.0 mph33.8 kmh 30.04 in1017.3 mb 0.00 in0.0 mm 0.00 in0.0 mm 0.33 in8.4 mm
03:34 PM 66.6°F19.2°C 37.2°F2.9°C 34% 6.9 mph WNW11.1 kmh WNW 21.0 mph33.8 kmh 30.05 in1017.6 mb 0.00 in0.0 mm 0.00 in0.0 mm 0.33 in8.4 mm
03:39 PM 66.5°F19.2°C 33.9°F1.1°C 30% 14.4 mph WNW23.2 kmh WNW 26.0 mph41.8 kmh 30.05 in1017.6 mb 0.00 in0.0 mm 0.00 in0.0 mm 0.33 in8.4 mm
03:44 PM 66.3°F19.1°C 34.6°F1.4°C 31% 10.9 mph WNW17.5 kmh WNW 29.0 mph46.7 kmh 30.05 in1017.6 mb 0.00 in0.0 mm 0.00 in0.0 mm 0.33 in8.4 mm
03:49 PM 66.1°F18.9°C 32.7°F0.4°C 29% 9.9 mph WNW15.9 kmh WNW 29.0 mph46.7 kmh 30.06 in1017.9 mb 0.00 in0.0 mm 0.00 in0.0 mm 0.33 in8.4 mm
03:54 PM 66.0°F18.9°C 32.6°F0.3°C 29% 8.9 mph WNW14.3 kmh WNW 29.0 mph46.7 kmh 30.06 in1017.9 mb 0.00 in0.0 mm 0.00 in0.0 mm 0.33 in8.4 mm
03:59 PM 66.1°F18.9°C 31.9°F-0.1°C 28% 12.3 mph WNW19.8 kmh WNW 23.0 mph37.0 kmh 30.05 in1017.6 mb 0.00 in0.0 mm 0.00 in0.0 mm 0.33 in8.4 mm
04:04 PM 66.2°F19.0°C 33.0°F0.6°C 29% 6.0 mph WNW9.7 kmh WNW 23.0 mph37.0 kmh 30.06 in1017.9 mb 0.00 in0.0 mm 0.00 in0.0 mm 0.33 in8.4 mm
04:09 PM 66.4°F19.1°C 32.3°F0.2°C 28% 8.9 mph WNW14.3 kmh WNW 23.0 mph37.0 kmh 30.06 in1017.9 mb 0.00 in0.0 mm 0.00 in0.0 mm 0.33 in8.4 mm
04:14 PM 66.0°F18.9°C 31.9°F-0.1°C 28% 11.2 mph WNW18.0 kmh WNW 23.0 mph37.0 kmh 30.06 in1017.9 mb 0.00 in0.0 mm 0.00 in0.0 mm 0.33 in8.4 mm
04:19 PM 65.8°F18.8°C 31.8°F-0.1°C 28% 11.5 mph WNW18.5 kmh WNW 23.0 mph37.0 kmh 30.06 in1017.9 mb 0.00 in0.0 mm 0.00 in0.0 mm 0.33 in8.4 mm
04:24 PM 65.4°F18.6°C 32.3°F0.2°C 29% 9.5 mph WNW15.3 kmh WNW 23.0 mph37.0 kmh 30.06 in1017.9 mb 0.00 in0.0 mm 0.00 in0.0 mm 0.33 in8.4 mm
04:29 PM 65.5°F18.6°C 32.4°F0.2°C 29% 8.4 mph W13.5 kmh W 23.0 mph37.0 kmh 30.06 in1017.9 mb 0.00 in0.0 mm 0.00 in0.0 mm 0.33 in8.4 mm
04:34 PM 65.7°F18.7°C 33.4°F0.8°C 30% 5.6 mph WNW9.0 kmh WNW 23.0 mph37.0 kmh 30.06 in1017.9 mb 0.00 in0.0 mm 0.00 in0.0 mm 0.33 in8.4 mm
04:39 PM 65.6°F18.7°C 32.5°F0.3°C 29% 8.0 mph WNW12.9 kmh WNW 21.0 mph33.8 kmh 30.07 in1018.3 mb 0.00 in0.0 mm 0.00 in0.0 mm 0.33 in8.4 mm
04:44 PM 65.3°F18.5°C 33.0°F0.6°C 30% 8.3 mph WNW13.4 kmh WNW 21.0 mph33.8 kmh 30.07 in1018.3 mb 0.00 in0.0 mm 0.00 in0.0 mm 0.33 in8.4 mm
04:49 PM 65.1°F18.4°C 31.2°F-0.4°C 28% 8.7 mph WNW14.0 kmh WNW 21.0 mph33.8 kmh 30.07 in1018.3 mb 0.00 in0.0 mm 0.00 in0.0 mm 0.33 in8.4 mm
04:54 PM 64.6°F18.1°C 31.6°F-0.2°C 29% 7.2 mph WNW11.6 kmh WNW 21.0 mph33.8 kmh 30.08 in1018.6 mb 0.00 in0.0 mm 0.00 in0.0 mm 0.33 in8.4 mm
04:59 PM 64.5°F18.1°C 32.4°F0.2°C 30% 6.1 mph WNW9.8 kmh WNW 20.0 mph32.2 kmh 30.08 in1018.6 mb 0.00 in0.0 mm 0.00 in0.0 mm 0.33 in8.4 mm
05:04 PM 64.1°F17.8°C 31.2°F-0.4°C 29% 8.1 mph WNW13.0 kmh WNW 20.0 mph32.2 kmh 30.08 in1018.6 mb 0.00 in0.0 mm 0.00 in0.0 mm 0.33 in8.4 mm
05:09 PM 63.9°F17.7°C 30.1°F-1.1°C 28% 5.4 mph NW8.7 kmh NW 20.0 mph32.2 kmh 30.08 in1018.6 mb 0.00 in0.0 mm 0.00 in0.0 mm 0.33 in8.4 mm
05:14 PM 63.8°F17.7°C 29.1°F-1.6°C 27% 7.7 mph WNW12.4 kmh WNW 17.0 mph27.4 kmh 30.08 in1018.6 mb 0.00 in0.0 mm 0.00 in0.0 mm 0.33 in8.4 mm
05:19 PM 63.4°F17.4°C 27.7°F-2.4°C 26% 7.3 mph NW11.7 kmh NW 17.0 mph27.4 kmh 30.08 in1018.6 mb 0.00 in0.0 mm 0.00 in0.0 mm 0.33 in8.4 mm
05:24 PM 63.0°F17.2°C 27.4°F-2.6°C 26% 10.5 mph WNW16.9 kmh WNW 18.0 mph29.0 kmh 30.09 in1019.0 mb 0.00 in0.0 mm 0.00 in0.0 mm 0.33 in8.4 mm
05:29 PM 62.6°F17.0°C 27.1°F-2.7°C 26% 4.6 mph WNW7.4 kmh WNW 18.0 mph29.0 kmh 30.09 in1019.0 mb 0.00 in0.0 mm 0.00 in0.0 mm 0.33 in8.4 mm
05:34 PM 62.5°F16.9°C 27.9°F-2.3°C 27% 8.5 mph WNW13.7 kmh WNW 18.0 mph29.0 kmh 30.09 in1019.0 mb 0.00 in0.0 mm 0.00 in0.0 mm 0.33 in8.4 mm
05:39 PM 62.5°F16.9°C 27.9°F-2.3°C 27% 8.6 mph NW13.8 kmh NW 18.0 mph29.0 kmh 30.09 in1019.0 mb 0.00 in0.0 mm 0.00 in0.0 mm 0.33 in8.4 mm
05:44 PM 62.4°F16.9°C 28.7°F-1.8°C 28% 11.0 mph WNW17.7 kmh WNW 21.0 mph33.8 kmh 30.09 in1019.0 mb 0.00 in0.0 mm 0.00 in0.0 mm 0.33 in8.4 mm
05:49 PM 62.4°F16.9°C 28.7°F-1.8°C 28% 7.0 mph WNW11.3 kmh WNW 21.0 mph33.8 kmh 30.09 in1019.0 mb 0.00 in0.0 mm 0.00 in0.0 mm 0.33 in8.4 mm
05:54 PM 62.4°F16.9°C 26.9°F-2.8°C 26% 9.6 mph WNW15.4 kmh WNW 21.0 mph33.8 kmh 30.09 in1019.0 mb 0.00 in0.0 mm 0.00 in0.0 mm 0.33 in8.4 mm
05:59 PM 62.3°F16.8°C 26.8°F-2.9°C 26% 9.6 mph WNW15.4 kmh WNW 23.0 mph37.0 kmh 30.09 in1019.0 mb 0.00 in0.0 mm 0.00 in0.0 mm 0.33 in8.4 mm
06:04 PM 62.2°F16.8°C 26.7°F-2.9°C 26% 8.2 mph NW13.2 kmh NW 23.0 mph37.0 kmh 30.10 in1019.3 mb 0.00 in0.0 mm 0.00 in0.0 mm 0.33 in8.4 mm
06:09 PM 62.0°F16.7°C 27.4°F-2.6°C 27% 7.6 mph WNW12.2 kmh WNW 23.0 mph37.0 kmh 30.10 in1019.3 mb 0.00 in0.0 mm 0.00 in0.0 mm 0.33 in8.4 mm
06:14 PM 61.8°F16.6°C 27.3°F-2.6°C 27% 6.1 mph WNW9.8 kmh WNW 23.0 mph37.0 kmh 30.10 in1019.3 mb 0.00 in0.0 mm 0.00 in0.0 mm 0.33 in8.4 mm
06:19 PM 61.4°F16.3°C 26.9°F-2.8°C 27% 9.8 mph NW15.8 kmh NW 20.0 mph32.2 kmh 30.10 in1019.3 mb 0.00 in0.0 mm 0.00 in0.0 mm 0.33 in8.4 mm
06:24 PM 61.0°F16.1°C 27.5°F-2.5°C 28% 6.7 mph NW10.8 kmh NW 20.0 mph32.2 kmh 30.11 in1019.6 mb 0.00 in0.0 mm 0.00 in0.0 mm 0.33 in8.4 mm
06:29 PM 60.6°F15.9°C 28.8°F-1.8°C 30% 4.6 mph NW7.4 kmh NW 20.0 mph32.2 kmh 30.11 in1019.6 mb 0.00 in0.0 mm 0.00 in0.0 mm 0.33 in8.4 mm
06:34 PM 60.3°F15.7°C 28.5°F-1.9°C 30% 4.5 mph NW7.2 kmh NW 20.0 mph32.2 kmh 30.11 in1019.6 mb 0.00 in0.0 mm 0.00 in0.0 mm 0.33 in8.4 mm
06:39 PM 59.9°F15.5°C 28.2°F-2.1°C 30% 5.7 mph NW9.2 kmh NW 15.0 mph24.1 kmh 30.12 in1020.0 mb 0.00 in0.0 mm 0.00 in0.0 mm 0.33 in8.4 mm
06:44 PM 59.5°F15.3°C 28.6°F-1.9°C 31% 6.4 mph NW10.3 kmh NW 16.0 mph25.7 kmh 30.13 in1020.3 mb 0.00 in0.0 mm 0.00 in0.0 mm 0.33 in8.4 mm
06:49 PM 59.2°F15.1°C 27.6°F-2.4°C 30% 5.6 mph WNW9.0 kmh WNW 18.0 mph29.0 kmh 30.13 in1020.3 mb 0.00 in0.0 mm 0.00 in0.0 mm 0.33 in8.4 mm
06:53 PM 58.8°F14.9°C 28.0°F-2.2°C 31% 5.9 mph WNW9.5 kmh WNW 18.0 mph29.0 kmh 30.13 in1020.3 mb 0.00 in0.0 mm 0.00 in0.0 mm 0.33 in8.4 mm
06:58 PM 58.6°F14.8°C 28.6°F-1.9°C 32% 3.7 mph NW6.0 kmh NW 18.0 mph29.0 kmh 30.14 in1020.7 mb 0.00 in0.0 mm 0.00 in0.0 mm 0.33 in8.4 mm
07:03 PM 58.3°F14.6°C 28.3°F-2.1°C 32% 4.2 mph NW6.8 kmh NW 18.0 mph29.0 kmh 30.14 in1020.7 mb 0.00 in0.0 mm 0.00 in0.0 mm 0.33 in8.4 mm
07:08 PM 58.1°F14.5°C 28.9°F-1.7°C 33% 6.9 mph NW11.1 kmh NW 15.0 mph24.1 kmh 30.14 in1020.7 mb 0.00 in0.0 mm 0.00 in0.0 mm 0.33 in8.4 mm
07:13 PM 58.0°F14.4°C 28.8°F-1.8°C 33% 8.2 mph NW13.2 kmh NW 16.0 mph25.7 kmh 30.15 in1021.0 mb 0.00 in0.0 mm 0.00 in0.0 mm 0.33 in8.4 mm
07:18 PM 57.7°F14.3°C 28.8°F-1.8°C 33% 4.9 mph NW7.9 kmh NW 16.0 mph25.7 kmh 30.14 in1020.7 mb 0.00 in0.0 mm 0.00 in0.0 mm 0.33 in8.4 mm
07:23 PM 57.4°F14.1°C 29.0°F-1.7°C 34% 4.1 mph NW6.6 kmh NW 16.0 mph25.7 kmh 30.15 in1021.0 mb 0.00 in0.0 mm 0.00 in0.0 mm 0.33 in8.4 mm
07:28 PM 57.1°F13.9°C 29.5°F-1.4°C 35% 3.0 mph NW4.8 kmh NW 16.0 mph25.7 kmh 30.15 in1021.0 mb 0.00 in0.0 mm 0.00 in0.0 mm 0.33 in8.4 mm
07:33 PM 56.9°F13.8°C 30.0°F-1.1°C 36% 4.1 mph NW6.6 kmh NW 12.0 mph19.3 kmh 30.15 in1021.0 mb 0.00 in0.0 mm 0.00 in0.0 mm 0.33 in8.4 mm
07:38 PM 56.7°F13.7°C 29.8°F-1.2°C 36% 2.7 mph NW4.3 kmh NW 11.0 mph17.7 kmh 30.16 in1021.3 mb 0.00 in0.0 mm 0.00 in0.0 mm 0.33 in8.4 mm
07:43 PM 56.4°F13.6°C 29.6°F-1.3°C 36% 3.3 mph NW5.3 kmh NW 10.0 mph16.1 kmh 30.16 in1021.3 mb 0.00 in0.0 mm 0.00 in0.0 mm 0.33 in8.4 mm
07:48 PM 56.2°F13.4°C 30.1°F-1.1°C 37% 2.4 mph WNW3.9 kmh WNW 11.0 mph17.7 kmh 30.16 in1021.3 mb 0.00 in0.0 mm 0.00 in0.0 mm 0.33 in8.4 mm
07:53 PM 55.9°F13.3°C 29.8°F-1.2°C 37% 4.6 mph WNW7.4 kmh WNW 11.0 mph17.7 kmh 30.17 in1021.7 mb 0.00 in0.0 mm 0.00 in0.0 mm 0.33 in8.4 mm
07:58 PM 55.8°F13.2°C 30.4°F-0.9°C 38% 4.0 mph WNW6.4 kmh WNW 11.0 mph17.7 kmh 30.17 in1021.7 mb 0.00 in0.0 mm 0.00 in0.0 mm 0.33 in8.4 mm
08:03 PM 55.7°F13.2°C 30.3°F-0.9°C 38% 4.3 mph NW6.9 kmh NW 10.0 mph16.1 kmh 30.17 in1021.7 mb 0.00 in0.0 mm 0.00 in0.0 mm 0.33 in8.4 mm
08:08 PM 55.4°F13.0°C 30.7°F-0.7°C 39% 3.2 mph WNW5.1 kmh WNW 10.0 mph16.1 kmh 30.17 in1021.7 mb 0.00 in0.0 mm 0.00 in0.0 mm 0.33 in8.4 mm
08:13 PM 55.0°F12.8°C 30.5°F-0.8°C 39% 3.7 mph WNW6.0 kmh WNW 10.0 mph16.1 kmh 30.17 in1021.7 mb 0.00 in0.0 mm 0.00 in0.0 mm 0.33 in8.4 mm
08:18 PM 54.8°F12.7°C 30.8°F-0.7°C 40% 3.3 mph WNW5.3 kmh WNW 10.0 mph16.1 kmh 30.18 in1022.0 mb 0.00 in0.0 mm 0.00 in0.0 mm 0.33 in8.4 mm
08:23 PM 54.6°F12.6°C 31.2°F-0.4°C 41% 3.4 mph NW5.5 kmh NW 10.0 mph16.1 kmh 30.18 in1022.0 mb 0.00 in0.0 mm 0.00 in0.0 mm 0.33 in8.4 mm
08:28 PM 54.3°F12.4°C 30.9°F-0.6°C 41% 2.8 mph WNW4.5 kmh WNW 7.0 mph11.3 kmh 30.18 in1022.0 mb 0.00 in0.0 mm 0.00 in0.0 mm 0.33 in8.4 mm
08:33 PM 54.2°F12.3°C 30.8°F-0.7°C 41% 5.0 mph WNW8.0 kmh WNW 8.0 mph12.9 kmh 30.18 in1022.0 mb 0.00 in0.0 mm 0.00 in0.0 mm 0.33 in8.4 mm
08:38 PM 54.1°F12.3°C 30.7°F-0.7°C 41% 3.6 mph WNW5.8 kmh WNW 11.0 mph17.7 kmh 30.18 in1022.0 mb 0.00 in0.0 mm 0.00 in0.0 mm 0.33 in8.4 mm
08:43 PM 53.9°F12.2°C 31.2°F-0.4°C 42% 4.6 mph WNW7.4 kmh WNW 11.0 mph17.7 kmh 30.18 in1022.0 mb 0.00 in0.0 mm 0.00 in0.0 mm 0.33 in8.4 mm
08:48 PM 53.7°F12.1°C 31.1°F-0.5°C 42% 3.6 mph WNW5.8 kmh WNW 11.0 mph17.7 kmh 30.18 in1022.0 mb 0.00 in0.0 mm 0.00 in0.0 mm 0.33 in8.4 mm
08:53 PM 53.6°F12.0°C 30.9°F-0.6°C 42% 4.4 mph WNW7.1 kmh WNW 11.0 mph17.7 kmh 30.19 in1022.4 mb 0.00 in0.0 mm 0.00 in0.0 mm 0.33 in8.4 mm
08:58 PM 53.4°F11.9°C 30.7°F-0.7°C 42% 3.4 mph NW5.5 kmh NW 9.0 mph14.5 kmh 30.19 in1022.4 mb 0.00 in0.0 mm 0.00 in0.0 mm 0.33 in8.4 mm
09:03 PM 53.4°F11.9°C 30.7°F-0.7°C 42% 4.1 mph NW6.6 kmh NW 9.0 mph14.5 kmh 30.19 in1022.4 mb 0.00 in0.0 mm 0.00 in0.0 mm 0.33 in8.4 mm
09:08 PM 53.2°F11.8°C 30.5°F-0.8°C 42% 3.7 mph NW6.0 kmh NW 9.0 mph14.5 kmh 30.19 in1022.4 mb 0.00 in0.0 mm 0.00 in0.0 mm 0.33 in8.4 mm
09:13 PM 53.1°F11.7°C 30.5°F-0.8°C 42% 3.5 mph NW5.6 kmh NW 10.0 mph16.1 kmh 30.19 in1022.4 mb 0.00 in0.0 mm 0.00 in0.0 mm 0.33 in8.4 mm
09:18 PM 53.1°F11.7°C 29.8°F-1.2°C 41% 4.5 mph NW7.2 kmh NW 11.0 mph17.7 kmh 30.20 in1022.7 mb 0.00 in0.0 mm 0.00 in0.0 mm 0.33 in8.4 mm
09:24 PM 53.0°F11.7°C 30.4°F-0.9°C 42% 6.1 mph WNW9.8 kmh WNW 11.0 mph17.7 kmh 30.20 in1022.7 mb 0.00 in0.0 mm 0.00 in0.0 mm 0.33 in8.4 mm
09:28 PM 52.9°F11.6°C 30.3°F-0.9°C 42% 3.4 mph NW5.5 kmh NW 11.0 mph17.7 kmh 30.20 in1022.7 mb 0.00 in0.0 mm 0.00 in0.0 mm 0.33 in8.4 mm
09:33 PM 52.9°F11.6°C 30.3°F-0.9°C 42% 4.9 mph NW7.9 kmh NW 12.0 mph19.3 kmh 30.20 in1022.7 mb 0.00 in0.0 mm 0.00 in0.0 mm 0.33 in8.4 mm
09:38 PM 52.8°F11.6°C 29.6°F-1.3°C 41% 5.0 mph NW8.0 kmh NW 13.0 mph20.9 kmh 30.20 in1022.7 mb 0.00 in0.0 mm 0.00 in0.0 mm 0.33 in8.4 mm
09:43 PM 52.7°F11.5°C 29.5°F-1.4°C 41% 3.3 mph NW5.3 kmh NW 13.0 mph20.9 kmh 30.21 in1023.0 mb 0.00 in0.0 mm 0.00 in0.0 mm 0.33 in8.4 mm
09:49 PM 52.6°F11.4°C 29.4°F-1.4°C 41% 5.0 mph NW8.0 kmh NW 13.0 mph20.9 kmh 30.21 in1023.0 mb 0.00 in0.0 mm 0.00 in0.0 mm 0.33 in8.4 mm
09:54 PM 52.6°F11.4°C 29.4°F-1.4°C 41% 6.4 mph NW10.3 kmh NW 14.0 mph22.5 kmh 30.21 in1023.0 mb 0.00 in0.0 mm 0.00 in0.0 mm 0.33 in8.4 mm
09:59 PM 52.5°F11.4°C 29.9°F-1.2°C 42% 6.0 mph NW9.7 kmh NW 14.0 mph22.5 kmh 30.22 in1023.4 mb 0.00 in0.0 mm 0.00 in0.0 mm 0.33 in8.4 mm
10:04 PM 52.3°F11.3°C 29.7°F-1.3°C 42% 2.9 mph NW4.7 kmh NW 14.0 mph22.5 kmh 30.22 in1023.4 mb 0.00 in0.0 mm 0.00 in0.0 mm 0.33 in8.4 mm
10:09 PM 52.1°F11.2°C 30.1°F-1.1°C 43% 4.1 mph WNW6.6 kmh WNW 14.0 mph22.5 kmh 30.22 in1023.4 mb 0.00 in0.0 mm 0.00 in0.0 mm 0.33 in8.4 mm
10:14 PM 51.9°F11.1°C 30.0°F-1.1°C 43% 3.4 mph WNW5.5 kmh WNW 13.0 mph20.9 kmh 30.22 in1023.4 mb 0.00 in0.0 mm 0.00 in0.0 mm 0.33 in8.4 mm
10:19 PM 51.6°F10.9°C 30.3°F-0.9°C 44% 4.5 mph WNW7.2 kmh WNW 10.0 mph16.1 kmh 30.22 in1023.4 mb 0.00 in0.0 mm 0.00 in0.0 mm 0.33 in8.4 mm
10:24 PM 51.5°F10.8°C 30.3°F-0.9°C 44% 3.2 mph NW5.1 kmh NW 10.0 mph16.1 kmh 30.23 in1023.7 mb 0.00 in0.0 mm 0.00 in0.0 mm 0.33 in8.4 mm
10:29 PM 51.3°F10.7°C 30.0°F-1.1°C 44% 3.3 mph WNW5.3 kmh WNW 10.0 mph16.1 kmh 30.23 in1023.7 mb 0.00 in0.0 mm 0.00 in0.0 mm 0.33 in8.4 mm
10:34 PM 51.2°F10.7°C 30.5°F-0.8°C 45% 4.1 mph WNW6.6 kmh WNW 10.0 mph16.1 kmh 30.23 in1023.7 mb 0.00 in0.0 mm 0.00 in0.0 mm 0.33 in8.4 mm
10:39 PM 51.0°F10.6°C 30.3°F-0.9°C 45% 3.2 mph NW5.1 kmh NW 10.0 mph16.1 kmh 30.23 in1023.7 mb 0.00 in0.0 mm 0.00 in0.0 mm 0.33 in8.4 mm
10:44 PM 50.8°F10.4°C 30.1°F-1.1°C 45% 2.0 mph WNW3.2 kmh WNW 9.0 mph14.5 kmh 30.23 in1023.7 mb 0.00 in0.0 mm 0.00 in0.0 mm 0.33 in8.4 mm
10:49 PM 50.6°F10.3°C 30.5°F-0.8°C 46% 3.3 mph NW5.3 kmh NW 9.0 mph14.5 kmh 30.24 in1024.0 mb 0.00 in0.0 mm 0.00 in0.0 mm 0.33 in8.4 mm
10:54 PM 50.5°F10.3°C 30.5°F-0.8°C 46% 3.1 mph NW5.0 kmh NW 10.0 mph16.1 kmh 30.23 in1023.7 mb 0.00 in0.0 mm 0.00 in0.0 mm 0.33 in8.4 mm
10:59 PM 50.3°F10.2°C 30.2°F-1.0°C 46% 2.8 mph NW4.5 kmh NW 10.0 mph16.1 kmh 30.24 in1024.0 mb 0.00 in0.0 mm 0.00 in0.0 mm 0.33 in8.4 mm
11:04 PM 50.2°F10.1°C 30.1°F-1.1°C 46% 2.8 mph NW4.5 kmh NW 10.0 mph16.1 kmh 30.24 in1024.0 mb 0.00 in0.0 mm 0.00 in0.0 mm 0.33 in8.4 mm
11:09 PM 49.9°F9.9°C 29.8°F-1.2°C 46% 3.4 mph NW5.5 kmh NW 8.0 mph12.9 kmh 30.24 in1024.0 mb 0.00 in0.0 mm 0.00 in0.0 mm 0.33 in8.4 mm
11:14 PM 49.8°F9.9°C 29.8°F-1.2°C 46% 2.7 mph WNW4.3 kmh WNW 8.0 mph12.9 kmh 30.24 in1024.0 mb 0.00 in0.0 mm 0.00 in0.0 mm 0.33 in8.4 mm
11:19 PM 49.6°F9.8°C 30.2°F-1.0°C 47% 1.9 mph WNW3.1 kmh WNW 8.0 mph12.9 kmh 30.24 in1024.0 mb 0.00 in0.0 mm 0.00 in0.0 mm 0.33 in8.4 mm
11:24 PM 49.5°F9.7°C 30.0°F-1.1°C 47% 2.4 mph WNW3.9 kmh WNW 8.0 mph12.9 kmh 30.24 in1024.0 mb 0.00 in0.0 mm 0.00 in0.0 mm 0.33 in8.4 mm
11:29 PM 49.3°F9.6°C 29.8°F-1.2°C 47% 2.4 mph WNW3.9 kmh WNW 6.0 mph9.7 kmh 30.24 in1024.0 mb 0.00 in0.0 mm 0.00 in0.0 mm 0.33 in8.4 mm
11:34 PM 49.3°F9.6°C 29.8°F-1.2°C 47% 2.2 mph WNW3.5 kmh WNW 6.0 mph9.7 kmh 30.24 in1024.0 mb 0.00 in0.0 mm 0.00 in0.0 mm 0.33 in8.4 mm
11:39 PM 49.1°F9.5°C 29.7°F-1.3°C 47% 2.1 mph WNW3.4 kmh WNW 6.0 mph9.7 kmh 30.25 in1024.4 mb 0.00 in0.0 mm 0.00 in0.0 mm 0.33 in8.4 mm
11:44 PM 48.9°F9.4°C 29.5°F-1.4°C 47% 2.4 mph WNW3.9 kmh WNW 6.0 mph9.7 kmh 30.25 in1024.4 mb 0.00 in0.0 mm 0.00 in0.0 mm 0.33 in8.4 mm
11:49 PM 48.8°F9.3°C 29.4°F-1.4°C 47% 3.1 mph NW5.0 kmh NW 6.0 mph9.7 kmh 30.25 in1024.4 mb 0.00 in0.0 mm 0.00 in0.0 mm 0.33 in8.4 mm
11:53 PM 48.6°F9.2°C 29.2°F-1.6°C 47% 2.1 mph WNW3.4 kmh WNW 6.0 mph9.7 kmh 30.25 in1024.4 mb 0.00 in0.0 mm 0.00 in0.0 mm 0.33 in8.4 mm
11:58 PM 48.5°F9.2°C 29.1°F-1.6°C 47% 3.2 mph WNW5.1 kmh WNW 6.0 mph9.7 kmh 30.25 in1024.4 mb 0.00 in0.0 mm 0.00 in0.0 mm 0.33 in8.4 mm